Time;durP1;ratioP1;P1;durP2;ratioP2;P2;SDS_P1;SDS_P2;PMS_P1;PMS_P2;Temp;Humidity;BMP_temperature;BMP_pressure;BME280_temperature;BME280_humidity;BME280_pressure;Samples;Min_cycle;Max_cycle;Signal;HPM_P1;HPM_P2
2022/11/01 00:00:16;;;;;;;10.00;4.23;;;;;;;16.75;61.28;99390.63;5073715;28;20336;-95
2022/11/01 00:02:42;;;;;;;10.55;3.65;;;;;;;16.71;62.11;99383.31;5072895;28;20261;-93
2022/11/01 00:05:08;;;;;;;12.80;3.92;;;;;;;16.79;61.98;99369.59;5073326;28;20162;-92
2022/11/01 00:07:33;;;;;;;8.73;2.80;;;;;;;16.83;62.07;99375.28;5072614;28;20028;-93
2022/11/01 00:09:58;;;;;;;12.57;4.13;;;;;;;16.83;61.69;99375.28;5071932;28;20032;-95
2022/11/01 00:12:24;;;;;;;14.30;4.20;;;;;;;16.81;61.77;99372.03;5072687;28;20378;-94
2022/11/01 00:14:49;;;;;;;11.20;3.28;;;;;;;16.80;61.64;99360.19;5072653;28;20265;-85
2022/11/01 00:17:14;;;;;;;12.17;3.33;;;;;;;16.77;61.89;99365.53;5071728;28;20037;-85
2022/11/01 00:19:39;;;;;;;19.38;4.18;;;;;;;16.76;61.84;99367.47;5071839;28;20269;-87
2022/11/01 00:22:05;;;;;;;24.88;5.25;;;;;;;16.72;62.35;99362.94;5071570;28;20047;-87
2022/11/01 00:24:30;;;;;;;11.60;3.42;;;;;;;16.71;62.60;99372.28;5072465;28;20036;-95
2022/11/01 00:26:56;;;;;;;25.43;7.20;;;;;;;16.73;62.71;99370.03;5072043;28;20463;-94
2022/11/01 00:29:21;;;;;;;11.48;4.97;;;;;;;16.72;62.90;99371.97;5073370;28;20252;-95
2022/11/01 00:31:47;;;;;;;9.85;3.97;;;;;;;16.67;63.37;99375.69;5072944;28;20032;-95
2022/11/01 00:34:12;;;;;;;6.97;3.50;;;;;;;16.69;63.75;99369.88;5072591;28;20032;-95
2022/11/01 00:36:37;;;;;;;19.85;5.03;;;;;;;16.64;63.63;99373.56;5073320;28;20643;-96
2022/11/01 00:39:03;;;;;;;11.45;3.97;;;;;;;16.68;64.53;99358.03;5072589;28;20507;-89
2022/11/01 00:41:29;;;;;;;9.07;3.60;;;;;;;16.65;64.88;99353.19;5072790;28;20047;-89
2022/11/01 00:43:54;;;;;;;8.17;3.33;;;;;;;16.69;65.27;99343.16;5076175;28;20113;-87
2022/11/01 00:46:19;;;;;;;9.07;3.40;;;;;;;16.58;65.73;99347.28;5072390;28;20276;-87
2022/11/01 00:48:45;;;;;;;13.20;4.93;;;;;;;16.58;66.16;99372.06;5072734;28;20115;-85
2022/11/01 00:51:10;;;;;;;11.93;3.63;;;;;;;16.53;66.80;99384.03;5072797;28;20271;-85
2022/11/01 00:53:35;;;;;;;13.90;4.07;;;;;;;16.53;68.87;99378.53;5071706;28;20036;-85
2022/11/01 00:56:03;;;;;;;14.48;3.67;;;;;;;16.56;69.72;99355.88;5072707;28;20289;-86
2022/11/01 00:58:28;;;;;;;11.40;3.78;;;;;;;16.47;71.18;99324.75;5072651;28;20028;-89
2022/11/01 01:00:54;;;;;;;8.52;3.65;;;;;;;16.44;71.42;99347.38;5072501;28;20090;-89
2022/11/01 01:03:19;;;;;;;10.82;4.38;;;;;;;16.29;72.44;99354.91;5072123;28;20033;-88
2022/11/01 01:05:46;;;;;;;11.90;3.57;;;;;;;16.31;72.86;99341.63;5071984;28;20038;-89
2022/11/01 01:08:12;;;;;;;13.73;4.65;;;;;;;16.22;73.05;99352.59;5071922;28;20751;-88
2022/11/01 01:10:37;;;;;;;9.73;3.70;;;;;;;16.22;73.39;99358.09;5071951;28;20028;-89
2022/11/01 01:13:02;;;;;;;9.75;3.80;;;;;;;16.19;73.54;99344.19;5072252;28;20617;-96
2022/11/01 01:15:28;;;;;;;10.57;5.07;;;;;;;16.12;73.97;99344.59;5073042;28;20518;-96
2022/11/01 01:17:53;;;;;;;14.93;6.00;;;;;;;16.14;73.22;99349.78;5072852;28;20711;-86
2022/11/01 01:20:19;;;;;;;16.08;4.82;;;;;;;16.08;73.80;99352.66;5072643;28;20028;-86
2022/11/01 01:22:44;;;;;;;16.15;3.88;;;;;;;15.99;74.16;99344.31;5071583;28;20158;-88
2022/11/01 01:25:10;;;;;;;13.60;5.13;;;;;;;16.02;74.04;99353.91;5072594;28;20024;-87
2022/11/01 01:27:36;;;;;;;16.30;4.70;;;;;;;15.91;74.52;99353.31;5072278;28;20297;-87
2022/11/01 01:30:02;;;;;;;15.50;5.53;;;;;;;16.02;74.23;99344.84;5072335;28;20595;-87
2022/11/01 01:32:27;;;;;;;10.98;3.50;;;;;;;16.03;73.68;99349.25;5071722;28;20043;-87
2022/11/01 01:34:53;;;;;;;11.23;4.07;;;;;;;15.97;74.41;99335.56;5072518;28;20040;-95
2022/11/01 01:37:19;;;;;;;13.57;5.57;;;;;;;15.93;74.54;99342.81;5072777;28;20021;-95
2022/11/01 01:39:44;;;;;;;9.13;3.90;;;;;;;16.03;73.72;99341.78;5073017;28;20261;-96
2022/11/01 01:42:33;;;;;;;16.80;4.43;;;;;;;15.99;73.85;99336.06;5072380;28;20077;-96
2022/11/01 01:44:58;;;;;;;17.88;4.70;;;;;;;15.92;73.94;99321.97;5072571;28;20442;-94
2022/11/01 01:47:32;;;;;;;11.00;4.03;;;;;;;15.88;74.04;99309.97;5072527;28;20214;-93
2022/11/01 01:50:00;;;;;;;12.98;4.75;;;;;;;15.90;74.03;99313.22;5072168;28;20360;-94
2022/11/01 01:52:29;;;;;;;10.77;5.13;;;;;;;15.87;74.52;99314.63;5071297;28;20051;-94
2022/11/01 01:54:55;;;;;;;14.02;4.25;;;;;;;15.82;74.45;99300.22;5071878;28;20028;-88
2022/11/01 01:57:21;;;;;;;12.65;5.90;;;;;;;15.92;74.68;99294.47;5071832;28;20058;-87
2022/11/01 01:59:47;;;;;;;10.63;3.90;;;;;;;15.95;74.38;99304.81;5071777;28;20039;-94
2022/11/01 02:02:13;;;;;;;8.48;3.40;;;;;;;15.98;74.33;99306.16;5072167;28;20032;-85
2022/11/01 02:04:43;;;;;;;14.00;4.68;;;;;;;15.94;74.71;99294.16;5071482;28;20088;-85
2022/11/01 02:07:08;;;;;;;14.85;5.38;;;;;;;15.97;74.27;99291.59;5071489;28;20028;-88
2022/11/01 02:09:35;;;;;;;12.68;4.40;;;;;;;15.94;74.28;99303.22;5071491;28;20108;-88
2022/11/01 02:12:01;;;;;;;12.02;3.90;;;;;;;15.99;73.65;99294.84;5071511;28;20040;-90
2022/11/01 02:14:28;;;;;;;10.77;4.13;;;;;;;15.98;74.22;99303.41;5071355;28;20032;-89
2022/11/01 02:17:12;;;;;;;9.50;3.83;;;;;;;16.03;73.94;99294.25;5071792;28;20107;-87
2022/11/01 02:19:37;;;;;;;;;;;;;;;15.95;73.78;99299.34;5071777;28;20059;-87
2022/11/01 02:22:11;;;;;;;18.88;4.10;;;;;;;15.94;73.50;99294.97;5071071;28;19912;-95
2022/11/01 02:24:58;;;;;;;11.73;3.80;;;;;;;16.01;73.28;99288.22;5071546;28;20043;-95
2022/11/01 02:28:06;;;;;;;8.48;4.15;;;;;;;16.05;73.17;99294.75;5071713;28;20068;-96
2022/11/01 02:31:02;;;;;;;9.75;3.40;;;;;;;16.05;72.93;99298.28;5062520;28;20094;-88
2022/11/01 02:33:38;;;;;;;11.00;4.57;;;;;;;15.98;73.06;99295.97;5083426;28;20099;-88
2022/11/01 02:36:13;;;;;;;11.55;4.03;;;;;;;16.06;73.17;99293.63;5091874;28;20475;-90
2022/11/01 02:38:49;;;;;;;9.90;3.95;;;;;;;16.08;73.13;99307.84;5091905;28;20115;-90
2022/11/01 02:41:22;;;;;;;11.65;4.25;;;;;;;16.03;73.25;99319.00;5091672;28;20028;-88
2022/11/01 02:44:04;;;;;;;14.38;4.70;;;;;;;16.01;73.61;99308.25;5075693;28;20039;-88
2022/11/01 02:49:21;;;;;;;9.63;4.43;;;;;;;15.98;73.58;99301.47;5070981;28;20047;-87
2022/11/01 02:51:49;;;;;;;15.50;4.75;;;;;;;16.07;73.69;99300.72;5070953;28;20039;-88
2022/11/01 02:54:20;;;;;;;9.98;3.42;;;;;;;16.05;73.70;99311.25;5070089;28;20040;-89
2022/11/01 02:56:45;;;;;;;10.63;3.53;;;;;;;16.04;73.83;99307.69;5070721;28;20032;-86
2022/11/01 02:59:18;;;;;;;19.30;3.63;;;;;;;16.06;73.69;99293.63;5069533;28;20476;-87
2022/11/01 03:01:50;;;;;;;10.52;4.82;;;;;;;16.09;73.61;99312.22;5070717;28;20776;-85
2022/11/01 03:04:15;;;;;;;33.08;4.40;;;;;;;16.03;74.08;99308.00;5088193;28;20073;-85
2022/11/01 03:06:47;;;;;;;8.60;3.92;;;;;;;16.06;74.09;99305.44;5090933;28;20036;-87
2022/11/01 03:09:13;;;;;;;12.50;3.97;;;;;;;16.02;74.26;99301.69;5091112;28;20039;-87
2022/11/01 03:11:56;;;;;;;9.45;3.80;;;;;;;16.02;74.71;99301.69;5091471;28;20123;-90
2022/11/01 03:14:40;;;;;;;13.40;3.60;;;;;;;15.90;75.52;99307.72;5070628;28;20115;-90
2022/11/01 03:17:31;;;;;;;10.55;3.15;;;;;;;15.98;75.10;99308.91;5070721;28;20031;-88
2022/11/01 03:20:05;;;;;;;7.75;3.25;;;;;;;15.90;75.21;99296.72;5070555;28;20088;-88
2022/11/01 03:22:40;;;;;;;16.88;5.50;;;;;;;15.88;75.74;99301.72;5070237;28;20492;-85
2022/11/01 03:25:39;;;;;;;8.70;2.88;;;;;;;15.82;75.91;99302.97;5070523;28;20040;-85
2022/11/01 03:28:09;;;;;;;16.52;4.55;;;;;;;15.79;76.27;99303.56;5070656;28;20065;-88
2022/11/01 03:30:40;;;;;;;10.20;3.03;;;;;;;15.85;75.92;99308.66;5070928;28;20037;-95
2022/11/01 03:33:06;;;;;;;11.00;4.05;;;;;;;15.81;76.21;99317.81;5081230;28;20410;-95
2022/11/01 03:35:35;;;;;;;10.63;4.03;;;;;;;15.81;76.55;99315.06;5095095;28;20057;-87
2022/11/01 03:38:05;;;;;;;12.07;4.45;;;;;;;15.85;76.19;99327.06;5094438;28;20034;-87
2022/11/01 03:40:33;;;;;;;11.45;3.53;;;;;;;15.67;77.34;99326.94;5094755;28;20062;-90
2022/11/01 03:43:08;;;;;;;10.95;4.15;;;;;;;15.75;76.94;99328.13;5094650;28;20460;-90
2022/11/01 03:45:37;;;;;;;13.25;4.10;;;;;;;15.79;76.96;99344.78;5094786;28;20032;-87
2022/11/01 03:48:04;;;;;;;11.43;4.00;;;;;;;15.73;76.83;99347.66;5090998;28;20068;-87
2022/11/01 03:50:30;;;;;;;9.38;3.45;;;;;;;15.80;76.46;99346.44;5074598;28;20033;-88
2022/11/01 03:52:56;;;;;;;22.83;5.05;;;;;;;15.82;77.13;99352.44;5081755;28;20028;-88
2022/11/01 03:55:22;;;;;;;17.98;6.00;;;;;;;15.82;76.95;99346.94;5095103;28;20467;-94
2022/11/01 03:57:52;;;;;;;12.50;3.60;;;;;;;15.75;77.29;99339.94;5095253;28;20024;-89
2022/11/01 04:00:20;;;;;;;11.15;4.05;;;;;;;15.78;77.25;99349.50;5094200;28;20585;-86
2022/11/01 04:02:46;;;;;;;13.23;3.80;;;;;;;15.80;77.52;99363.75;5086904;28;20043;-87
2022/11/01 04:05:12;;;;;;;11.38;4.15;;;;;;;15.81;77.25;99364.53;5073661;28;20036;-86
2022/11/01 04:07:38;;;;;;;12.18;4.35;;;;;;;15.80;77.64;99354.69;5072306;28;20445;-86
2022/11/01 04:10:04;;;;;;;10.70;3.72;;;;;;;15.80;77.74;99352.75;5073825;28;20060;-87
2022/11/01 04:12:30;;;;;;;12.20;3.72;;;;;;;15.80;77.84;99374.72;5073331;28;20118;-88
2022/11/01 04:20:32;;;;;;;18.08;4.43;;;;;;;15.76;78.24;99376.47;5074058;28;20047;-87
2022/11/01 04:23:04;;;;;;;10.50;4.53;;;;;;;15.89;77.80;99377.53;5073189;28;20044;-94
2022/11/01 04:25:31;;;;;;;8.68;3.72;;;;;;;15.74;78.06;99381.47;5073780;28;20035;-93
2022/11/01 04:27:57;;;;;;;13.20;3.97;;;;;;;15.87;78.04;99379.78;5073278;28;20036;-88
2022/11/01 04:30:27;;;;;;;13.00;4.90;;;;;;;15.74;78.75;99382.25;5073528;28;20044;-89
2022/11/01 04:32:53;;;;;;;7.35;2.70;;;;;;;15.82;78.10;99385.41;5081190;28;20036;-90
2022/11/01 04:35:19;;;;;;;7.28;3.22;;;;;;;15.86;78.30;99378.19;5093860;28;20035;-90
2022/11/01 04:37:44;;;;;;;8.25;3.58;;;;;;;15.93;78.27;99369.47;5094383;28;20601;-90
2022/11/01 04:40:12;;;;;;;9.18;3.55;;;;;;;15.93;78.15;99384.03;5088621;28;20048;-89
2022/11/01 04:42:38;;;;;;;7.90;3.20;;;;;;;15.96;78.37;99390.88;5073937;28;20442;-90
2022/11/01 04:45:04;;;;;;;11.70;3.35;;;;;;;15.91;78.62;99397.28;5073322;28;20047;-92
2022/11/01 04:47:30;;;;;;;9.57;3.30;;;;;;;15.93;78.73;99397.78;5071859;28;20024;-93
2022/11/01 04:49:55;;;;;;;8.05;3.20;;;;;;;15.90;78.93;99395.66;5073760;28;20036;-88
2022/11/01 04:52:21;;;;;;;7.97;3.27;;;;;;;15.92;78.94;99404.44;5073265;28;20112;-88
2022/11/01 04:54:46;;;;;;;7.18;2.15;;;;;;;15.97;78.64;99409.78;5073085;28;20253;-88
2022/11/01 04:57:23;;;;;;;6.53;2.97;;;;;;;16.01;78.78;99406.44;5073011;28;20221;-87
2022/11/01 04:59:50;;;;;;;5.10;2.20;;;;;;;16.07;78.40;99405.19;5073156;28;20426;-85
2022/11/01 05:02:15;;;;;;;9.75;3.28;;;;;;;16.09;78.38;99405.69;5074970;28;20107;-85
2022/11/01 05:04:40;;;;;;;12.15;3.30;;;;;;;16.07;78.66;99402.44;5093633;28;20051;-88
2022/11/01 05:07:06;;;;;;;9.97;3.03;;;;;;;16.13;78.46;99403.97;5093198;28;20015;-88
2022/11/01 05:09:31;;;;;;;13.85;5.40;;;;;;;16.06;78.52;99409.91;5093563;28;20252;-93
2022/11/01 05:11:56;;;;;;;8.30;2.90;;;;;;;16.10;78.43;99399.91;5091888;28;20059;-93
2022/11/01 05:14:21;;;;;;;5.83;1.70;;;;;;;16.09;78.33;99395.53;5071610;28;20669;-95
2022/11/01 05:16:47;;;;;;;8.10;3.23;;;;;;;16.10;78.53;99399.09;5073560;28;20297;-95
2022/11/01 05:19:12;;;;;;;13.55;3.83;;;;;;;16.09;78.50;99409.28;5072887;28;20269;-85
2022/11/01 05:21:37;;;;;;;11.27;3.73;;;;;;;16.06;78.71;99417.34;5073189;28;20032;-85
2022/11/01 05:24:02;;;;;;;6.67;3.03;;;;;;;16.06;78.79;99415.41;5072036;28;20154;-85
2022/11/01 05:26:28;;;;;;;7.18;2.20;;;;;;;16.05;78.80;99419.25;5072179;28;20330;-85
2022/11/01 05:28:53;;;;;;;7.10;3.40;;;;;;;16.04;78.60;99412.16;5072541;28;20047;-85
2022/11/01 05:31:18;;;;;;;6.80;2.87;;;;;;;15.97;79.22;99423.53;5072867;28;20028;-85
2022/11/01 05:33:44;;;;;;;6.93;2.83;;;;;;;16.07;78.63;99427.19;5072145;28;20568;-88
2022/11/01 05:36:09;;;;;;;13.07;4.67;;;;;;;16.03;78.96;99427.00;5072006;28;20439;-88
2022/11/01 05:38:34;;;;;;;5.68;2.33;;;;;;;16.05;79.18;99429.47;5072271;28;20292;-95
2022/11/01 05:41:03;;;;;;;12.17;2.50;;;;;;;16.00;79.06;99422.13;5072706;28;20096;-94
2022/11/01 05:43:28;;;;;;;5.03;2.13;;;;;;;16.01;79.16;99425.69;5072064;28;20285;-85
2022/11/01 05:45:54;;;;;;;9.10;2.67;;;;;;;15.98;79.46;99430.69;5070755;28;20075;-85
2022/11/01 05:48:19;;;;;;;10.37;3.47;;;;;;;16.09;78.92;99442.25;5078102;28;20039;-88
2022/11/01 05:50:45;;;;;;;10.47;3.63;;;;;;;16.03;79.57;99438.00;5091462;28;20028;-88
2022/11/01 05:53:11;;;;;;;9.75;3.17;;;;;;;16.02;79.28;99444.63;5081608;28;20281;-95
2022/11/01 05:55:38;;;;;;;14.20;3.08;;;;;;;16.08;79.10;99456.34;5071110;28;20471;-94
2022/11/01 05:58:04;;;;;;;9.60;2.78;;;;;;;16.03;79.23;99467.47;5072362;28;20143;-89
2022/11/01 06:00:29;;;;;;;11.93;4.20;;;;;;;16.12;79.18;99471.09;5071979;28;20043;-89
2022/11/01 06:02:57;;;;;;;14.10;3.67;;;;;;;16.17;78.72;99481.16;5071657;28;20090;-93
2022/11/01 06:05:22;;;;;;;6.78;3.00;;;;;;;16.13;78.98;99480.94;5070582;28;20033;-94
2022/11/01 06:07:48;;;;;;;7.03;3.33;;;;;;;16.25;78.32;99479.63;5071268;28;20092;-92
2022/11/01 06:10:13;;;;;;;23.80;3.03;;;;;;;16.27;78.17;99477.38;5071619;28;20261;-94
2022/11/01 06:12:38;;;;;;;12.37;3.30;;;;;;;16.25;78.14;99480.41;5070991;28;20405;-95
2022/11/01 06:15:04;;;;;;;9.23;2.63;;;;;;;16.25;77.80;99482.38;5071456;28;20292;-85
2022/11/01 06:17:29;;;;;;;6.47;3.28;;;;;;;16.26;78.29;99492.22;5071997;28;20272;-87
2022/11/01 06:19:54;;;;;;;5.85;2.88;;;;;;;16.16;78.25;99496.03;5071995;28;20447;-89
2022/11/01 06:22:20;;;;;;;6.72;2.70;;;;;;;16.21;78.05;99504.97;5074757;28;20092;-89
2022/11/01 06:24:45;;;;;;;8.50;3.83;;;;;;;16.15;78.11;99510.91;5091869;28;20035;-88
2022/11/01 06:27:10;;;;;;;7.63;2.90;;;;;;;16.13;78.11;99508.44;5091271;28;20257;-88
2022/11/01 06:29:35;;;;;;;14.17;3.33;;;;;;;16.16;78.07;99524.34;5091636;28;20148;-94
2022/11/01 06:32:02;;;;;;;6.30;2.40;;;;;;;16.20;77.53;99524.53;5090596;28;20288;-95
2022/11/01 06:34:27;;;;;;;12.57;4.28;;;;;;;16.24;77.39;99535.72;5071764;28;20261;-88
2022/11/01 06:36:53;;;;;;;4.07;2.00;;;;;;;16.03;78.21;99531.47;5071161;28;20454;-88
2022/11/01 06:39:18;;;;;;;9.20;4.10;;;;;;;16.09;77.91;99545.94;5070955;28;20348;-87
2022/11/01 06:41:43;;;;;;;6.63;3.20;;;;;;;16.05;78.02;99547.69;5071279;28;20326;-87
2022/11/01 06:44:08;;;;;;;6.45;2.97;;;;;;;16.08;77.96;99550.63;5089049;28;20032;-86
2022/11/01 06:46:46;;;;;;;5.37;2.70;;;;;;;16.06;77.94;99546.56;5091599;28;20038;-86
2022/11/01 06:49:11;;;;;;;9.23;3.30;;;;;;;16.13;77.19;99557.94;5077742;28;20352;-88
2022/11/01 06:51:37;;;;;;;6.38;2.47;;;;;;;16.11;76.11;99554.69;5070881;28;20559;-88
2022/11/01 06:54:02;;;;;;;6.93;3.40;;;;;;;16.01;75.60;99560.41;5087808;28;20028;-94
2022/11/01 06:56:27;;;;;;;5.95;1.85;;;;;;;15.97;75.02;99577.47;5091069;28;20378;-94
2022/11/01 06:58:53;;;;;;;8.85;2.50;;;;;;;16.08;74.32;99588.31;5091162;28;20783;-85
2022/11/01 07:01:20;;;;;;;5.40;2.15;;;;;;;15.87;72.49;99589.50;5090662;28;20427;-84
2022/11/01 07:03:45;;;;;;;7.68;1.83;;;;;;;15.91;71.35;99617.19;5066086;28;20036;-88
2022/11/01 07:06:11;;;;;;;8.13;2.20;;;;;;;15.80;71.07;99607.53;5050393;28;20222;-87
2022/11/01 07:08:37;;;;;;;6.28;1.50;;;;;;;15.65;70.84;99623.16;5049105;28;20868;-87
2022/11/01 07:11:02;;;;;;;3.85;1.23;;;;;;;15.83;70.16;99615.16;5050123;28;20132;-88
2022/11/01 07:13:32;;;;;;;13.50;2.70;;;;;;;15.58;69.01;99636.50;5062763;28;20036;-95
2022/11/01 07:15:58;;;;;;;7.78;1.60;;;;;;;15.49;68.68;99636.38;5070565;28;20039;-94
2022/11/01 07:18:23;;;;;;;4.20;1.55;;;;;;;15.49;68.59;99636.38;5070635;28;20032;-89
2022/11/01 07:20:48;;;;;;;4.37;1.63;;;;;;;15.34;68.44;99642.91;5070110;28;20479;-89
2022/11/01 07:23:15;;;;;;;4.07;1.00;;;;;;;15.52;68.41;99653.06;5080537;28;20276;-89
2022/11/01 07:25:41;;;;;;;152.13;15.25;;;;;;;15.46;68.22;99661.69;5090614;28;20808;-88
2022/11/01 07:28:07;;;;;;;7.50;1.60;;;;;;;15.29;68.02;99666.59;5090660;28;20031;-91
2022/11/01 07:30:32;;;;;;;3.05;0.90;;;;;;;15.43;67.05;99662.28;5090785;28;20625;-91
2022/11/01 07:33:00;;;;;;;7.15;1.65;;;;;;;15.31;67.18;99673.75;5082162;28;20040;-94
2022/11/01 07:35:26;;;;;;;4.95;1.50;;;;;;;15.31;66.80;99673.75;5070393;28;20044;-94
2022/11/01 07:37:52;;;;;;;4.22;1.10;;;;;;;15.31;66.02;99701.19;5070706;28;20530;-90
2022/11/01 07:40:18;;;;;;;3.00;0.85;;;;;;;15.21;65.86;99700.25;5070551;28;20127;-90
2022/11/01 07:42:44;;;;;;;4.32;1.25;;;;;;;15.24;65.63;99699.66;5070713;28;20039;-90
2022/11/01 07:45:11;;;;;;;6.82;1.40;;;;;;;15.34;65.27;99700.59;5070292;28;20035;-88
2022/11/01 07:47:37;;;;;;;7.75;1.23;;;;;;;15.11;64.48;99711.38;5070498;28;20033;-90
2022/11/01 07:50:04;;;;;;;3.05;0.60;;;;;;;15.04;63.70;99717.25;5050410;28;20261;-89
2022/11/01 07:52:30;;;;;;;9.73;1.90;;;;;;;15.07;63.33;99715.84;5059018;28;20047;-88
2022/11/01 07:54:55;;;;;;;2.80;0.80;;;;;;;15.07;63.67;99726.81;5091156;28;20059;-89
2022/11/01 07:57:21;;;;;;;3.42;1.08;;;;;;;15.05;63.02;99729.88;5090967;28;20834;-89
2022/11/01 07:59:46;;;;;;;2.25;0.90;;;;;;;15.02;63.29;99731.28;5090842;28;20028;-91
2022/11/01 08:02:11;;;;;;;1.70;0.63;;;;;;;15.02;63.30;99734.00;5088895;28;20031;-91
2022/11/01 08:04:37;;;;;;;3.00;1.07;;;;;;;15.01;63.08;99740.59;5070251;28;20346;-84
2022/11/01 08:07:02;;;;;;;7.10;0.60;;;;;;;14.90;63.66;99744.59;5069191;28;20044;-84
2022/11/01 08:09:27;;;;;;;3.63;0.80;;;;;;;15.04;63.35;99756.50;5070496;28;20071;-95
2022/11/01 08:11:52;;;;;;;3.57;0.80;;;;;;;15.03;62.99;99748.56;5092328;28;20294;-94
2022/11/01 08:14:18;;;;;;;3.45;0.90;;;;;;;15.21;63.09;99744.19;5069538;28;20295;-89
2022/11/01 08:16:46;;;;;;;6.63;1.50;;;;;;;15.14;63.33;99754.72;5070445;28;20111;-89
2022/11/01 08:19:12;;;;;;;5.63;1.15;;;;;;;15.15;63.03;99761.84;5071496;28;20277;-89
2022/11/01 08:21:37;;;;;;;2.22;0.90;;;;;;;15.05;63.41;99760.06;5063938;28;20063;-89
2022/11/01 08:24:02;;;;;;;3.43;0.87;;;;;;;15.02;63.87;99764.22;5070585;28;20045;-84
2022/11/01 08:26:27;;;;;;;3.00;0.63;;;;;;;15.05;62.97;99769.09;5089122;28;20297;-84
2022/11/01 08:28:53;;;;;;;2.35;0.95;;;;;;;15.02;63.23;99766.97;5072450;28;20551;-86
2022/11/01 08:31:18;;;;;;;4.83;1.10;;;;;;;15.08;62.80;99766.88;5073355;28;20312;-86
2022/11/01 08:33:46;;;;;;;4.70;0.90;;;;;;;15.16;62.88;99768.97;5073326;28;20795;-86
2022/11/01 08:36:12;;;;;;;6.32;0.90;;;;;;;14.99;62.94;99770.28;5072401;28;20265;-86
2022/11/01 08:38:37;;;;;;;1.50;0.50;;;;;;;14.98;62.97;99776.88;5073341;28;20097;-89
2022/11/01 08:41:02;;;;;;;3.15;0.43;;;;;;;14.91;63.21;99776.41;5073697;28;20043;-89
2022/11/01 08:43:28;;;;;;;3.05;0.70;;;;;;;15.08;63.02;99784.16;5082327;28;20074;-89
2022/11/01 08:45:53;;;;;;;4.40;0.95;;;;;;;15.08;63.41;99777.84;5093143;28;20035;-89
2022/11/01 08:48:18;;;;;;;4.93;0.90;;;;;;;15.08;63.08;99791.59;5086108;28;20123;-86
2022/11/01 08:50:44;;;;;;;2.45;0.88;;;;;;;15.09;63.05;99790.50;5073257;28;20280;-86
2022/11/01 08:53:12;;;;;;;3.30;0.90;;;;;;;15.05;61.86;99795.75;5072692;28;20036;-86
2022/11/01 08:55:40;;;;;;;5.93;0.70;;;;;;;15.01;61.39;99802.94;5072975;28;20474;-86
2022/11/01 08:58:06;;;;;;;15.18;2.13;;;;;;;15.09;60.43;99801.47;5073213;28;20032;-88
2022/11/01 09:00:31;;;;;;;4.47;1.33;;;;;;;15.03;60.03;99800.72;5073163;28;20468;-89
2022/11/01 09:02:56;;;;;;;7.13;0.93;;;;;;;15.19;58.85;99817.81;5073163;28;20524;-95
2022/11/01 09:05:22;;;;;;;10.93;1.10;;;;;;;15.17;58.76;99818.09;5073046;28;20044;-95
2022/11/01 09:07:48;;;;;;;5.15;1.15;;;;;;;15.28;57.84;99827.00;5073128;28;20360;-92
2022/11/01 09:10:17;;;;;;;3.95;1.20;;;;;;;15.15;57.21;99822.25;5072582;28;20051;-86
2022/11/01 09:12:42;;;;;;;10.60;3.25;;;;;;;15.07;55.95;99840.19;5072224;28;20280;-86
2022/11/01 09:15:08;;;;;;;12.50;1.97;;;;;;;15.10;55.35;99844.28;5072500;28;20112;-86
2022/11/01 09:17:34;;;;;;;5.00;1.45;;;;;;;15.26;54.70;99840.22;5072746;28;20250;-86
2022/11/01 09:19:59;;;;;;;8.02;1.58;;;;;;;15.05;54.22;99845.97;5072908;28;20033;-87
2022/11/01 09:22:25;;;;;;;12.35;2.50;;;;;;;15.10;54.63;99847.84;5076076;28;20031;-89
2022/11/01 09:24:50;;;;;;;14.77;3.60;;;;;;;15.02;54.00;99849.31;5093557;28;20289;-89
2022/11/01 09:27:15;;;;;;;12.35;5.47;;;;;;;15.10;54.26;99841.53;5093863;28;20077;-88
2022/11/01 09:29:41;;;;;;;6.53;2.17;;;;;;;15.21;53.57;99843.06;5097716;28;20039;-93
2022/11/01 09:32:06;;;;;;;10.15;2.85;;;;;;;15.23;53.32;99846.31;5091123;28;20046;-95
2022/11/01 09:34:32;;;;;;;10.90;2.23;;;;;;;15.36;52.82;99853.00;5072693;28;20037;-89
2022/11/01 09:36:58;;;;;;;6.03;1.30;;;;;;;15.62;53.01;99857.34;5072086;28;20258;-89
2022/11/01 09:39:23;;;;;;;13.50;2.60;;;;;;;15.52;53.09;99858.28;5072430;28;20024;-89
2022/11/01 09:41:51;;;;;;;6.30;1.65;;;;;;;15.51;53.60;99856.66;5072210;28;20340;-89
2022/11/01 09:44:24;;;;;;;7.53;2.40;;;;;;;15.48;52.65;99866.31;5072341;28;20032;-86
2022/11/01 09:46:53;;;;;;;14.25;2.35;;;;;;;15.39;52.89;99870.84;5072585;28;20036;-86
2022/11/01 09:49:25;;;;;;;22.98;2.53;;;;;;;15.50;52.56;99866.81;5072183;28;20059;-89
2022/11/01 09:51:50;;;;;;;10.95;3.45;;;;;;;15.40;53.28;99866.97;5071013;28;20461;-89
2022/11/01 09:54:20;;;;;;;6.07;1.58;;;;;;;15.37;53.30;99862.06;5071776;28;20028;-90
2022/11/01 09:57:11;;;;;;;5.10;1.35;;;;;;;15.34;52.24;99879.94;5072015;28;20032;-91
2022/11/01 10:00:12;;;;;;;8.60;2.13;;;;;;;15.39;52.86;99871.66;5072295;28;20282;-86
2022/11/01 10:02:40;;;;;;;7.57;1.17;;;;;;;15.41;52.98;99871.34;5076861;28;20036;-86
2022/11/01 10:05:37;;;;;;;15.18;3.20;;;;;;;15.46;53.27;99875.97;5092494;28;20089;-91
2022/11/01 10:08:09;;;;;;;17.38;2.35;;;;;;;15.42;53.62;99870.22;5079353;28;20119;-89
2022/11/01 10:10:57;;;;;;;7.15;2.10;;;;;;;15.66;53.37;99866.63;5070281;28;20033;-88
2022/11/01 10:13:42;;;;;;;7.50;1.65;;;;;;;15.61;52.35;99867.50;5063581;28;20718;-86
2022/11/01 10:16:30;;;;;;;6.85;1.50;;;;;;;15.75;52.68;99873.09;5071629;28;20467;-87
2022/11/01 10:19:10;;;;;;;11.95;1.55;;;;;;;15.78;52.87;99870.84;5071927;28;20024;-84
2022/11/01 10:21:48;;;;;;;10.27;1.58;;;;;;;15.95;52.31;99868.38;5071169;28;20582;-84
2022/11/01 10:24:20;;;;;;;13.25;1.65;;;;;;;15.86;51.90;99872.94;5089906;28;20044;-84
2022/11/01 10:26:49;;;;;;;10.35;1.90;;;;;;;15.84;52.13;99869.66;5091657;28;20039;-83
2022/11/01 10:29:29;;;;;;;7.93;1.98;;;;;;;15.86;52.24;99875.69;5092018;28;20092;-88
2022/11/01 10:31:55;;;;;;;13.30;2.65;;;;;;;15.79;52.57;99875.22;5091789;28;20482;-89
2022/11/01 10:34:33;;;;;;;4.35;1.02;;;;;;;16.06;52.07;99879.25;5091219;28;20036;-89
2022/11/01 10:37:13;;;;;;;9.65;1.98;;;;;;;16.17;51.58;99882.69;5091897;28;20035;-89
2022/11/01 10:39:49;;;;;;;11.02;1.98;;;;;;;16.06;51.48;99876.50;5092204;28;20063;-90
2022/11/01 10:42:15;;;;;;;8.45;2.10;;;;;;;15.94;52.11;99886.00;5088469;28;20479;-90
2022/11/01 10:44:45;;;;;;;14.30;2.70;;;;;;;16.10;52.36;99885.78;5071484;28;20388;-86
2022/11/01 10:47:17;;;;;;;6.07;1.13;;;;;;;16.08;52.20;99877.03;5071142;28;20032;-86
2022/11/01 10:50:21;;;;;;;3.88;1.27;;;;;;;15.76;52.95;99877.44;5070267;28;20060;-88
2022/11/01 10:52:54;;;;;;;27.00;6.43;;;;;;;15.88;53.56;99871.50;5070866;28;20036;-88
2022/11/01 10:55:38;;;;;;;22.83;5.45;;;;;;;15.88;52.92;99884.44;5072156;28;20115;-88
2022/11/01 10:58:13;;;;;;;13.20;2.75;;;;;;;15.86;52.34;99881.19;5071472;28;20132;-88
2022/11/01 11:00:41;;;;;;;8.43;1.95;;;;;;;15.91;52.83;99885.75;5071674;28;20036;-88
2022/11/01 11:03:18;;;;;;;13.27;3.15;;;;;;;15.87;52.71;99886.38;5069874;28;20043;-90
2022/11/01 11:05:45;;;;;;;5.45;1.33;;;;;;;15.88;52.28;99879.75;5071120;28;20139;-89
2022/11/01 11:08:16;;;;;;;8.70;2.35;;;;;;;15.84;52.21;99876.00;5071049;28;20036;-88
2022/11/01 11:10:43;;;;;;;7.88;1.50;;;;;;;16.04;51.91;99876.81;5070761;28;20044;-88
2022/11/01 11:13:09;;;;;;;7.55;1.95;;;;;;;16.21;52.30;99884.50;5070583;28;20068;-90
2022/11/01 11:15:40;;;;;;;15.20;2.35;;;;;;;16.21;51.78;99890.00;5070980;28;20056;-90
2022/11/01 11:18:16;;;;;;;6.13;2.38;;;;;;;16.32;52.00;99878.84;5070895;28;20043;-89
2022/11/01 11:20:42;;;;;;;13.90;3.33;;;;;;;16.18;51.59;99881.53;5071255;28;20028;-89
2022/11/01 11:23:10;;;;;;;9.45;2.00;;;;;;;16.41;51.13;99887.22;5070456;28;20028;-83
2022/11/01 11:25:36;;;;;;;11.75;3.38;;;;;;;16.26;51.00;99861.59;5070834;28;20045;-84
2022/11/01 11:28:02;;;;;;;6.43;1.65;;;;;;;16.17;51.35;99871.69;5070995;28;20035;-94
2022/11/01 11:30:31;;;;;;;12.88;3.13;;;;;;;16.29;50.84;99872.00;5071004;28;20086;-94
2022/11/01 11:32:58;;;;;;;11.82;1.60;;;;;;;16.42;50.70;99875.09;5061571;28;20566;-89
2022/11/01 11:35:27;;;;;;;6.85;1.02;;;;;;;16.52;50.52;99887.84;5050772;28;20033;-89
2022/11/01 11:38:04;;;;;;;10.30;2.58;;;;;;;16.47;49.57;99896.22;5050827;28;20040;-83
2022/11/01 11:40:48;;;;;;;11.23;2.00;;;;;;;16.49;49.91;99899.47;5050162;28;20404;-84
2022/11/01 11:43:32;;;;;;;7.22;1.85;;;;;;;16.63;49.47;99900.34;5060597;28;20036;-89